Hume, New York
Current Conditions -  °F | °C
As of 4:55 AM on Saturday 29 Nov 2014 (Local Time) from KOLE Reporting Station
Overcast Overcast  
Wind Chill: 11°   Ceiling: 6500
Heat Index: 19°   Visibility: 10mi
Dew Point: 19°   Wind: 6mph
Humidity: 100%   Direction: 190°S
Pressure: 30.08"   Gusts: NA
Location:  42.47°N, 78.14°W
Report Text: KOLE 290955Z AUTO 19005KT 10SM BKN065 OVC075 M07/M07 A3008 RMK AO2
Loading
Personal Weather Stations






























Interactive Weather Map New forecast layout! Learn more

10-Day Weather Forecast

Advertisements
Track Severe Weather on mobile